sensor_id;sensor_type;location;lat;lon;timestamp;temperature;humidity
65231;DHT22;51813;40.666;16.602;2022-08-01T00:00:11;26.60;46.70
65231;DHT22;51813;40.666;16.602;2022-08-01T00:02:38;26.50;47.40
65231;DHT22;51813;40.666;16.602;2022-08-01T00:05:04;26.50;47.30
65231;DHT22;51813;40.666;16.602;2022-08-01T00:07:32;26.50;47.50
65231;DHT22;51813;40.666;16.602;2022-08-01T00:09:58;26.50;48.20
65231;DHT22;51813;40.666;16.602;2022-08-01T00:12:23;26.50;48.50
65231;DHT22;51813;40.666;16.602;2022-08-01T00:14:49;26.50;48.20
65231;DHT22;51813;40.666;16.602;2022-08-01T00:17:15;26.40;49.20
65231;DHT22;51813;40.666;16.602;2022-08-01T00:19:41;26.30;49.00
65231;DHT22;51813;40.666;16.602;2022-08-01T00:22:07;26.30;49.40
65231;DHT22;51813;40.666;16.602;2022-08-01T00:24:33;26.30;49.50
65231;DHT22;51813;40.666;16.602;2022-08-01T00:26:58;26.40;49.70
65231;DHT22;51813;40.666;16.602;2022-08-01T00:29:24;26.30;49.70
65231;DHT22;51813;40.666;16.602;2022-08-01T00:31:50;26.40;49.20
65231;DHT22;51813;40.666;16.602;2022-08-01T00:34:16;26.40;49.70
65231;DHT22;51813;40.666;16.602;2022-08-01T00:36:41;26.40;49.50
65231;DHT22;51813;40.666;16.602;2022-08-01T00:39:07;26.30;49.90
65231;DHT22;51813;40.666;16.602;2022-08-01T00:41:33;26.30;50.20
65231;DHT22;51813;40.666;16.602;2022-08-01T00:44:03;26.30;50.20
65231;DHT22;51813;40.666;16.602;2022-08-01T00:46:28;26.30;50.50
65231;DHT22;51813;40.666;16.602;2022-08-01T00:48:54;26.30;50.10
65231;DHT22;51813;40.666;16.602;2022-08-01T00:51:20;26.30;50.50
65231;DHT22;51813;40.666;16.602;2022-08-01T00:53:46;26.30;50.30
65231;DHT22;51813;40.666;16.602;2022-08-01T00:56:12;26.30;50.50
65231;DHT22;51813;40.666;16.602;2022-08-01T00:58:38;26.30;50.40
65231;DHT22;51813;40.666;16.602;2022-08-01T01:01:04;26.30;50.60
65231;DHT22;51813;40.666;16.602;2022-08-01T01:03:30;26.30;50.30
65231;DHT22;51813;40.666;16.602;2022-08-01T01:08:43;26.30;50.60
65231;DHT22;51813;40.666;16.602;2022-08-01T01:11:25;26.30;50.70
65231;DHT22;51813;40.666;16.602;2022-08-01T01:13:57;26.30;50.70
65231;DHT22;51813;40.666;16.602;2022-08-01T01:16:25;26.30;50.90
65231;DHT22;51813;40.666;16.602;2022-08-01T01:18:57;26.30;50.70
65231;DHT22;51813;40.666;16.602;2022-08-01T01:26:59;26.30;50.80
65231;DHT22;51813;40.666;16.602;2022-08-01T01:29:35;26.20;50.80
65231;DHT22;51813;40.666;16.602;2022-08-01T01:34:39;26.10;51.00
65231;DHT22;51813;40.666;16.602;2022-08-01T01:37:09;26.20;51.10
65231;DHT22;51813;40.666;16.602;2022-08-01T01:39:37;26.20;51.10
65231;DHT22;51813;40.666;16.602;2022-08-01T01:42:06;26.30;51.10
65231;DHT22;51813;40.666;16.602;2022-08-01T01:44:32;26.20;51.20
65231;DHT22;51813;40.666;16.602;2022-08-01T01:47:00;26.20;51.30
65231;DHT22;51813;40.666;16.602;2022-08-01T01:49:27;26.20;51.30
65231;DHT22;51813;40.666;16.602;2022-08-01T01:51:56;26.20;51.40
65231;DHT22;51813;40.666;16.602;2022-08-01T01:54:24;26.20;51.60
65231;DHT22;51813;40.666;16.602;2022-08-01T01:56:52;26.00;51.70
65231;DHT22;51813;40.666;16.602;2022-08-01T01:59:25;26.00;51.80
65231;DHT22;51813;40.666;16.602;2022-08-01T02:01:55;26.10;52.00
65231;DHT22;51813;40.666;16.602;2022-08-01T02:04:23;26.10;52.30
65231;DHT22;51813;40.666;16.602;2022-08-01T02:06:50;26.10;52.10
65231;DHT22;51813;40.666;16.602;2022-08-01T02:09:19;26.00;52.10
65231;DHT22;51813;40.666;16.602;2022-08-01T02:11:47;26.10;52.10
65231;DHT22;51813;40.666;16.602;2022-08-01T02:14:14;26.10;52.20
65231;DHT22;51813;40.666;16.602;2022-08-01T02:16:42;26.10;52.40
65231;DHT22;51813;40.666;16.602;2022-08-01T02:19:10;26.20;52.10
65231;DHT22;51813;40.666;16.602;2022-08-01T02:22:16;26.20;52.10
65231;DHT22;51813;40.666;16.602;2022-08-01T02:24:55;26.20;52.20
65231;DHT22;51813;40.666;16.602;2022-08-01T02:27:44;26.20;52.20
65231;DHT22;51813;40.666;16.602;2022-08-01T02:30:13;26.20;52.40
65231;DHT22;51813;40.666;16.602;2022-08-01T02:32:44;26.20;52.50
65231;DHT22;51813;40.666;16.602;2022-08-01T02:35:46;26.20;52.20
65231;DHT22;51813;40.666;16.602;2022-08-01T02:38:05;26.30;52.50
65231;DHT22;51813;40.666;16.602;2022-08-01T02:40:33;26.20;52.50
65231;DHT22;51813;40.666;16.602;2022-08-01T02:43:03;26.20;52.70
65231;DHT22;51813;40.666;16.602;2022-08-01T02:45:30;26.20;52.60
65231;DHT22;51813;40.666;16.602;2022-08-01T02:48:14;26.20;52.90
65231;DHT22;51813;40.666;16.602;2022-08-01T02:50:42;26.20;52.50
65231;DHT22;51813;40.666;16.602;2022-08-01T02:53:11;26.20;52.80
65231;DHT22;51813;40.666;16.602;2022-08-01T02:55:39;26.20;52.60
65231;DHT22;51813;40.666;16.602;2022-08-01T02:58:07;26.20;52.80
65231;DHT22;51813;40.666;16.602;2022-08-01T03:00:34;26.20;52.80
65231;DHT22;51813;40.666;16.602;2022-08-01T03:03:01;26.10;53.00
65231;DHT22;51813;40.666;16.602;2022-08-01T03:05:29;26.10;53.00
65231;DHT22;51813;40.666;16.602;2022-08-01T03:07:56;26.10;53.00
65231;DHT22;51813;40.666;16.602;2022-08-01T03:10:24;26.20;53.00
65231;DHT22;51813;40.666;16.602;2022-08-01T03:12:52;26.10;53.10
65231;DHT22;51813;40.666;16.602;2022-08-01T03:15:19;26.10;53.10
65231;DHT22;51813;40.666;16.602;2022-08-01T03:17:47;26.20;53.40
65231;DHT22;51813;40.666;16.602;2022-08-01T03:20:16;26.20;53.20
65231;DHT22;51813;40.666;16.602;2022-08-01T03:22:44;26.20;53.30
65231;DHT22;51813;40.666;16.602;2022-08-01T03:25:12;26.20;53.10
65231;DHT22;51813;40.666;16.602;2022-08-01T03:27:40;26.20;53.00
65231;DHT22;51813;40.666;16.602;2022-08-01T03:30:07;26.20;53.00
65231;DHT22;51813;40.666;16.602;2022-08-01T03:32:33;26.10;53.10
65231;DHT22;51813;40.666;16.602;2022-08-01T03:34:59;26.10;53.10
65231;DHT22;51813;40.666;16.602;2022-08-01T03:37:38;26.10;53.00
65231;DHT22;51813;40.666;16.602;2022-08-01T03:40:11;26.10;53.10
65231;DHT22;51813;40.666;16.602;2022-08-01T03:42:47;26.10;53.10
65231;DHT22;51813;40.666;16.602;2022-08-01T03:45:25;26.10;53.30
65231;DHT22;51813;40.666;16.602;2022-08-01T03:47:59;26.10;53.20
65231;DHT22;51813;40.666;16.602;2022-08-01T03:50:25;26.10;53.10
65231;DHT22;51813;40.666;16.602;2022-08-01T03:52:54;26.00;53.20
65231;DHT22;51813;40.666;16.602;2022-08-01T03:55:23;26.00;53.40
65231;DHT22;51813;40.666;16.602;2022-08-01T03:57:50;26.00;53.30
65231;DHT22;51813;40.666;16.602;2022-08-01T04:00:17;25.90;53.30
65231;DHT22;51813;40.666;16.602;2022-08-01T04:02:49;26.00;53.30
65231;DHT22;51813;40.666;16.602;2022-08-01T04:05:16;26.00;53.10
65231;DHT22;51813;40.666;16.602;2022-08-01T04:07:49;26.00;53.10
65231;DHT22;51813;40.666;16.602;2022-08-01T04:10:24;26.10;53.00
65231;DHT22;51813;40.666;16.602;2022-08-01T04:12:50;26.10;53.00
65231;DHT22;51813;40.666;16.602;2022-08-01T04:15:16;26.10;52.90
65231;DHT22;51813;40.666;16.602;2022-08-01T04:17:42;26.00;52.90
65231;DHT22;51813;40.666;16.602;2022-08-01T04:20:08;26.00;53.00
65231;DHT22;51813;40.666;16.602;2022-08-01T04:22:34;26.00;53.10
65231;DHT22;51813;40.666;16.602;2022-08-01T04:25:02;26.00;53.20
65231;DHT22;51813;40.666;16.602;2022-08-01T04:27:32;26.00;53.20
65231;DHT22;51813;40.666;16.602;2022-08-01T04:29:59;26.00;53.10
65231;DHT22;51813;40.666;16.602;2022-08-01T04:32:27;26.00;53.20
65231;DHT22;51813;40.666;16.602;2022-08-01T04:34:55;26.10;53.40
65231;DHT22;51813;40.666;16.602;2022-08-01T04:37:25;26.10;53.10
65231;DHT22;51813;40.666;16.602;2022-08-01T04:39:52;26.10;52.90
65231;DHT22;51813;40.666;16.602;2022-08-01T04:42:20;26.10;53.10
65231;DHT22;51813;40.666;16.602;2022-08-01T04:44:46;26.10;52.90
65231;DHT22;51813;40.666;16.602;2022-08-01T04:47:13;26.10;52.90
65231;DHT22;51813;40.666;16.602;2022-08-01T04:49:39;26.20;52.90
65231;DHT22;51813;40.666;16.602;2022-08-01T04:52:05;26.10;52.90
65231;DHT22;51813;40.666;16.602;2022-08-01T04:54:34;26.10;53.00
65231;DHT22;51813;40.666;16.602;2022-08-01T04:57:06;26.10;53.20
65231;DHT22;51813;40.666;16.602;2022-08-01T04:59:33;26.00;53.30
65231;DHT22;51813;40.666;16.602;2022-08-01T05:04:32;26.00;53.40
65231;DHT22;51813;40.666;16.602;2022-08-01T05:06:58;25.90;53.60
65231;DHT22;51813;40.666;16.602;2022-08-01T05:09:25;26.00;53.70
65231;DHT22;51813;40.666;16.602;2022-08-01T05:11:51;25.90;53.70
65231;DHT22;51813;40.666;16.602;2022-08-01T05:14:17;25.90;53.70
65231;DHT22;51813;40.666;16.602;2022-08-01T05:16:43;25.90;53.60
65231;DHT22;51813;40.666;16.602;2022-08-01T05:19:09;25.90;53.70
65231;DHT22;51813;40.666;16.602;2022-08-01T05:21:35;26.00;53.50
65231;DHT22;51813;40.666;16.602;2022-08-01T05:24:01;26.00;53.40
65231;DHT22;51813;40.666;16.602;2022-08-01T05:26:27;26.10;53.40
65231;DHT22;51813;40.666;16.602;2022-08-01T05:28:53;26.00;53.30
65231;DHT22;51813;40.666;16.602;2022-08-01T05:31:19;26.00;53.40
65231;DHT22;51813;40.666;16.602;2022-08-01T05:33:44;26.00;53.50
65231;DHT22;51813;40.666;16.602;2022-08-01T05:36:10;26.00;53.70
65231;DHT22;51813;40.666;16.602;2022-08-01T05:38:36;25.90;53.70
65231;DHT22;51813;40.666;16.602;2022-08-01T05:41:01;26.00;53.60
65231;DHT22;51813;40.666;16.602;2022-08-01T05:43:27;26.00;53.70
65231;DHT22;51813;40.666;16.602;2022-08-01T05:45:53;26.00;53.70
65231;DHT22;51813;40.666;16.602;2022-08-01T05:48:18;26.00;53.60
65231;DHT22;51813;40.666;16.602;2022-08-01T05:50:44;26.00;53.50
65231;DHT22;51813;40.666;16.602;2022-08-01T05:53:10;26.00;53.40
65231;DHT22;51813;40.666;16.602;2022-08-01T05:55:36;26.00;53.40
65231;DHT22;51813;40.666;16.602;2022-08-01T05:58:02;26.10;53.30
65231;DHT22;51813;40.666;16.602;2022-08-01T06:00:28;26.10;53.00
65231;DHT22;51813;40.666;16.602;2022-08-01T06:02:53;26.20;52.90
65231;DHT22;51813;40.666;16.602;2022-08-01T06:05:19;26.10;52.90
65231;DHT22;51813;40.666;16.602;2022-08-01T06:07:45;26.10;53.00
65231;DHT22;51813;40.666;16.602;2022-08-01T06:10:10;26.10;53.00
65231;DHT22;51813;40.666;16.602;2022-08-01T06:12:37;26.10;52.90
65231;DHT22;51813;40.666;16.602;2022-08-01T06:15:03;26.10;53.00
65231;DHT22;51813;40.666;16.602;2022-08-01T06:17:29;26.00;52.90
65231;DHT22;51813;40.666;16.602;2022-08-01T06:19:55;26.10;52.90
65231;DHT22;51813;40.666;16.602;2022-08-01T06:22:21;26.10;52.70
65231;DHT22;51813;40.666;16.602;2022-08-01T06:24:47;26.00;52.70
65231;DHT22;51813;40.666;16.602;2022-08-01T06:27:12;25.90;52.70
65231;DHT22;51813;40.666;16.602;2022-08-01T06:29:38;25.90;52.70
65231;DHT22;51813;40.666;16.602;2022-08-01T06:32:04;26.00;52.70
65231;DHT22;51813;40.666;16.602;2022-08-01T06:34:30;26.10;52.70
65231;DHT22;51813;40.666;16.602;2022-08-01T06:36:56;26.10;52.60
65231;DHT22;51813;40.666;16.602;2022-08-01T06:39:21;26.20;52.50
65231;DHT22;51813;40.666;16.602;2022-08-01T06:41:47;26.10;52.50
65231;DHT22;51813;40.666;16.602;2022-08-01T06:44:13;26.10;52.40
65231;DHT22;51813;40.666;16.602;2022-08-01T06:46:39;26.10;52.20
65231;DHT22;51813;40.666;16.602;2022-08-01T06:49:05;26.20;52.00
65231;DHT22;51813;40.666;16.602;2022-08-01T06:51:30;26.20;52.00
65231;DHT22;51813;40.666;16.602;2022-08-01T06:53:56;26.10;51.60
65231;DHT22;51813;40.666;16.602;2022-08-01T06:56:22;26.10;51.50
65231;DHT22;51813;40.666;16.602;2022-08-01T06:58:49;26.10;51.60
65231;DHT22;51813;40.666;16.602;2022-08-01T07:01:15;26.20;51.90
65231;DHT22;51813;40.666;16.602;2022-08-01T07:03:41;26.20;51.70
65231;DHT22;51813;40.666;16.602;2022-08-01T07:06:07;26.20;51.20
65231;DHT22;51813;40.666;16.602;2022-08-01T07:08:33;26.20;51.40
65231;DHT22;51813;40.666;16.602;2022-08-01T07:10:59;26.30;51.10
65231;DHT22;51813;40.666;16.602;2022-08-01T07:13:26;26.40;50.60
65231;DHT22;51813;40.666;16.602;2022-08-01T07:15:52;26.40;50.30
65231;DHT22;51813;40.666;16.602;2022-08-01T07:18:18;26.40;50.00
65231;DHT22;51813;40.666;16.602;2022-08-01T07:20:44;26.50;49.90
65231;DHT22;51813;40.666;16.602;2022-08-01T07:23:12;26.50;49.10
65231;DHT22;51813;40.666;16.602;2022-08-01T07:25:38;26.40;48.30
65231;DHT22;51813;40.666;16.602;2022-08-01T07:28:04;26.50;48.10
65231;DHT22;51813;40.666;16.602;2022-08-01T07:30:30;26.40;47.80
65231;DHT22;51813;40.666;16.602;2022-08-01T07:32:56;26.40;47.90
65231;DHT22;51813;40.666;16.602;2022-08-01T07:35:22;26.40;48.00
65231;DHT22;51813;40.666;16.602;2022-08-01T07:37:48;26.40;47.60
65231;DHT22;51813;40.666;16.602;2022-08-01T07:40:14;26.40;47.60
65231;DHT22;51813;40.666;16.602;2022-08-01T07:42:39;26.40;46.90
65231;DHT22;51813;40.666;16.602;2022-08-01T07:45:09;26.40;46.80
65231;DHT22;51813;40.666;16.602;2022-08-01T07:47:35;26.40;47.10
65231;DHT22;51813;40.666;16.602;2022-08-01T07:50:02;26.50;47.00
65231;DHT22;51813;40.666;16.602;2022-08-01T07:52:28;26.50;47.00
65231;DHT22;51813;40.666;16.602;2022-08-01T07:54:56;26.60;47.30
65231;DHT22;51813;40.666;16.602;2022-08-01T07:57:23;26.50;46.90
65231;DHT22;51813;40.666;16.602;2022-08-01T07:59:49;26.50;47.20
65231;DHT22;51813;40.666;16.602;2022-08-01T08:02:15;26.50;47.50
65231;DHT22;51813;40.666;16.602;2022-08-01T08:04:41;26.50;47.40
65231;DHT22;51813;40.666;16.602;2022-08-01T08:07:07;26.50;47.30
65231;DHT22;51813;40.666;16.602;2022-08-01T08:09:33;26.40;47.20
65231;DHT22;51813;40.666;16.602;2022-08-01T08:11:58;26.50;46.80
65231;DHT22;51813;40.666;16.602;2022-08-01T08:14:24;26.50;46.60
65231;DHT22;51813;40.666;16.602;2022-08-01T08:16:50;26.40;46.70
65231;DHT22;51813;40.666;16.602;2022-08-01T08:19:16;26.50;45.80
65231;DHT22;51813;40.666;16.602;2022-08-01T08:21:42;26.50;45.30
65231;DHT22;51813;40.666;16.602;2022-08-01T08:24:09;26.50;45.00
65231;DHT22;51813;40.666;16.602;2022-08-01T08:26:54;26.60;44.70
65231;DHT22;51813;40.666;16.602;2022-08-01T08:29:21;26.60;44.60
65231;DHT22;51813;40.666;16.602;2022-08-01T08:31:47;26.60;44.70
65231;DHT22;51813;40.666;16.602;2022-08-01T08:34:13;26.70;44.70
65231;DHT22;51813;40.666;16.602;2022-08-01T08:36:39;26.70;45.10
65231;DHT22;51813;40.666;16.602;2022-08-01T08:39:05;26.70;44.80
65231;DHT22;51813;40.666;16.602;2022-08-01T08:41:34;26.70;45.00
65231;DHT22;51813;40.666;16.602;2022-08-01T08:44:04;26.60;45.10
65231;DHT22;51813;40.666;16.602;2022-08-01T08:46:31;26.60;45.40
65231;DHT22;51813;40.666;16.602;2022-08-01T08:49:02;26.60;45.10
65231;DHT22;51813;40.666;16.602;2022-08-01T08:51:30;26.50;45.20
65231;DHT22;51813;40.666;16.602;2022-08-01T08:54:00;26.60;45.10
65231;DHT22;51813;40.666;16.602;2022-08-01T08:56:28;26.50;45.00
65231;DHT22;51813;40.666;16.602;2022-08-01T08:58:58;26.60;45.40
65231;DHT22;51813;40.666;16.602;2022-08-01T09:01:24;26.60;45.10
65231;DHT22;51813;40.666;16.602;2022-08-01T09:03:50;26.60;44.70
65231;DHT22;51813;40.666;16.602;2022-08-01T09:06:16;26.70;44.60
65231;DHT22;51813;40.666;16.602;2022-08-01T09:08:42;26.80;44.80
65231;DHT22;51813;40.666;16.602;2022-08-01T09:11:08;26.80;44.90
65231;DHT22;51813;40.666;16.602;2022-08-01T09:13:33;26.70;45.10
65231;DHT22;51813;40.666;16.602;2022-08-01T09:15:59;26.70;44.80
65231;DHT22;51813;40.666;16.602;2022-08-01T09:18:39;26.70;44.80
65231;DHT22;51813;40.666;16.602;2022-08-01T09:23:57;26.70;44.60
65231;DHT22;51813;40.666;16.602;2022-08-01T09:26:33;26.70;44.50
65231;DHT22;51813;40.666;16.602;2022-08-01T09:29:03;26.70;43.90
65231;DHT22;51813;40.666;16.602;2022-08-01T09:31:29;26.70;44.10
65231;DHT22;51813;40.666;16.602;2022-08-01T09:34:00;26.60;44.00
65231;DHT22;51813;40.666;16.602;2022-08-01T09:37:00;26.70;43.40
65231;DHT22;51813;40.666;16.602;2022-08-01T09:39:27;26.70;43.00
65231;DHT22;51813;40.666;16.602;2022-08-01T09:41:54;26.80;42.20
65231;DHT22;51813;40.666;16.602;2022-08-01T09:44:39;26.90;41.40
65231;DHT22;51813;40.666;16.602;2022-08-01T09:47:06;26.90;41.10
65231;DHT22;51813;40.666;16.602;2022-08-01T09:49:35;26.80;40.60
65231;DHT22;51813;40.666;16.602;2022-08-01T09:52:18;26.80;40.80
65231;DHT22;51813;40.666;16.602;2022-08-01T09:54:53;26.80;40.90
65231;DHT22;51813;40.666;16.602;2022-08-01T09:57:20;26.80;40.80
65231;DHT22;51813;40.666;16.602;2022-08-01T09:59:48;26.70;40.90
65231;DHT22;51813;40.666;16.602;2022-08-01T10:04:53;26.70;40.50
65231;DHT22;51813;40.666;16.602;2022-08-01T10:07:19;26.70;40.30
65231;DHT22;51813;40.666;16.602;2022-08-01T10:09:46;26.70;39.80
65231;DHT22;51813;40.666;16.602;2022-08-01T10:12:17;26.70;39.80
65231;DHT22;51813;40.666;16.602;2022-08-01T10:14:45;26.70;39.90
65231;DHT22;51813;40.666;16.602;2022-08-01T10:17:16;26.70;39.80
65231;DHT22;51813;40.666;16.602;2022-08-01T10:19:43;26.70;39.70
65231;DHT22;51813;40.666;16.602;2022-08-01T10:22:13;26.80;39.50
65231;DHT22;51813;40.666;16.602;2022-08-01T10:24:43;26.90;39.70
65231;DHT22;51813;40.666;16.602;2022-08-01T10:27:10;26.90;39.40
65231;DHT22;51813;40.666;16.602;2022-08-01T10:29:46;26.90;40.00
65231;DHT22;51813;40.666;16.602;2022-08-01T10:32:12;26.80;39.50
65231;DHT22;51813;40.666;16.602;2022-08-01T10:34:38;26.80;39.50
65231;DHT22;51813;40.666;16.602;2022-08-01T10:37:05;26.80;39.10
65231;DHT22;51813;40.666;16.602;2022-08-01T10:39:34;26.80;39.40
65231;DHT22;51813;40.666;16.602;2022-08-01T10:42:01;26.80;39.10
65231;DHT22;51813;40.666;16.602;2022-08-01T10:44:28;26.80;39.00
65231;DHT22;51813;40.666;16.602;2022-08-01T10:46:59;26.80;39.00
65231;DHT22;51813;40.666;16.602;2022-08-01T10:49:29;26.80;39.10
65231;DHT22;51813;40.666;16.602;2022-08-01T10:51:56;26.90;38.80
65231;DHT22;51813;40.666;16.602;2022-08-01T10:54:25;26.90;38.40
65231;DHT22;51813;40.666;16.602;2022-08-01T10:56:51;27.00;38.60
65231;DHT22;51813;40.666;16.602;2022-08-01T10:59:28;27.00;38.80
65231;DHT22;51813;40.666;16.602;2022-08-01T11:02:04;26.90;38.70
65231;DHT22;51813;40.666;16.602;2022-08-01T11:04:51;26.90;37.40
65231;DHT22;51813;40.666;16.602;2022-08-01T11:07:35;26.80;38.10
65231;DHT22;51813;40.666;16.602;2022-08-01T11:10:10;26.80;38.00
65231;DHT22;51813;40.666;16.602;2022-08-01T11:12:42;26.80;38.60
65231;DHT22;51813;40.666;16.602;2022-08-01T11:17:46;26.90;38.70
65231;DHT22;51813;40.666;16.602;2022-08-01T11:20:22;26.90;38.20
65231;DHT22;51813;40.666;16.602;2022-08-01T11:33:11;26.90;38.10
65231;DHT22;51813;40.666;16.602;2022-08-01T11:35:39;26.90;38.60
65231;DHT22;51813;40.666;16.602;2022-08-01T11:38:27;27.00;39.00
65231;DHT22;51813;40.666;16.602;2022-08-01T11:41:23;26.90;39.80
65231;DHT22;51813;40.666;16.602;2022-08-01T11:54:41;27.40;37.70
65231;DHT22;51813;40.666;16.602;2022-08-01T11:57:12;27.60;37.70
65231;DHT22;51813;40.666;16.602;2022-08-01T11:59:48;27.70;37.70
65231;DHT22;51813;40.666;16.602;2022-08-01T12:07:17;27.60;37.30
65231;DHT22;51813;40.666;16.602;2022-08-01T12:09:44;27.70;36.90
65231;DHT22;51813;40.666;16.602;2022-08-01T12:12:14;27.60;37.40
65231;DHT22;51813;40.666;16.602;2022-08-01T12:14:40;27.60;35.70
65231;DHT22;51813;40.666;16.602;2022-08-01T12:17:05;27.70;37.00
65231;DHT22;51813;40.666;16.602;2022-08-01T12:19:31;27.70;36.90
65231;DHT22;51813;40.666;16.602;2022-08-01T12:24:36;27.80;36.30
65231;DHT22;51813;40.666;16.602;2022-08-01T12:27:04;27.70;36.50
65231;DHT22;51813;40.666;16.602;2022-08-01T12:29:40;27.70;36.90
65231;DHT22;51813;40.666;16.602;2022-08-01T12:32:22;27.70;37.80
65231;DHT22;51813;40.666;16.602;2022-08-01T12:34:48;27.70;36.90
65231;DHT22;51813;40.666;16.602;2022-08-01T12:37:14;27.70;37.20
65231;DHT22;51813;40.666;16.602;2022-08-01T12:39:41;27.70;37.40
65231;DHT22;51813;40.666;16.602;2022-08-01T12:42:08;27.70;37.60
65231;DHT22;51813;40.666;16.602;2022-08-01T12:44:36;27.70;37.50
65231;DHT22;51813;40.666;16.602;2022-08-01T12:47:03;27.70;37.70
65231;DHT22;51813;40.666;16.602;2022-08-01T12:49:31;27.80;37.70
65231;DHT22;51813;40.666;16.602;2022-08-01T12:51:57;27.80;37.60
65231;DHT22;51813;40.666;16.602;2022-08-01T12:54:23;28.00;38.10
65231;DHT22;51813;40.666;16.602;2022-08-01T12:56:51;28.10;38.40
65231;DHT22;51813;40.666;16.602;2022-08-01T12:59:28;28.20;38.60
65231;DHT22;51813;40.666;16.602;2022-08-01T13:02:08;28.30;38.40
65231;DHT22;51813;40.666;16.602;2022-08-01T13:04:51;28.30;38.20
65231;DHT22;51813;40.666;16.602;2022-08-01T13:07:17;28.20;38.30
65231;DHT22;51813;40.666;16.602;2022-08-01T13:09:50;28.00;37.80
65231;DHT22;51813;40.666;16.602;2022-08-01T13:12:16;28.10;38.60
65231;DHT22;51813;40.666;16.602;2022-08-01T13:14:42;28.10;38.40
65231;DHT22;51813;40.666;16.602;2022-08-01T13:17:07;28.00;38.30
65231;DHT22;51813;40.666;16.602;2022-08-01T13:19:44;28.00;38.30
65231;DHT22;51813;40.666;16.602;2022-08-01T13:22:10;28.00;38.40
65231;DHT22;51813;40.666;16.602;2022-08-01T13:24:36;28.00;38.50
65231;DHT22;51813;40.666;16.602;2022-08-01T13:27:03;28.00;38.70
65231;DHT22;51813;40.666;16.602;2022-08-01T13:29:39;28.10;38.60
65231;DHT22;51813;40.666;16.602;2022-08-01T13:32:15;28.20;38.70
65231;DHT22;51813;40.666;16.602;2022-08-01T13:34:41;28.30;38.90
65231;DHT22;51813;40.666;16.602;2022-08-01T13:37:07;28.30;38.50
65231;DHT22;51813;40.666;16.602;2022-08-01T13:39:33;28.20;38.60
65231;DHT22;51813;40.666;16.602;2022-08-01T13:42:11;28.20;38.40
65231;DHT22;51813;40.666;16.602;2022-08-01T13:44:38;28.10;38.30
65231;DHT22;51813;40.666;16.602;2022-08-01T13:47:04;28.20;39.40
65231;DHT22;51813;40.666;16.602;2022-08-01T13:49:30;28.10;38.90
65231;DHT22;51813;40.666;16.602;2022-08-01T13:51:57;28.10;39.10
65231;DHT22;51813;40.666;16.602;2022-08-01T13:54:23;28.20;38.90
65231;DHT22;51813;40.666;16.602;2022-08-01T13:56:49;28.10;39.40
65231;DHT22;51813;40.666;16.602;2022-08-01T13:59:15;28.10;39.70
65231;DHT22;51813;40.666;16.602;2022-08-01T14:01:41;28.20;39.50
65231;DHT22;51813;40.666;16.602;2022-08-01T14:04:07;28.30;39.50
65231;DHT22;51813;40.666;16.602;2022-08-01T14:06:33;28.30;39.60
65231;DHT22;51813;40.666;16.602;2022-08-01T14:08:58;28.20;39.80
65231;DHT22;51813;40.666;16.602;2022-08-01T14:11:24;28.20;40.10
65231;DHT22;51813;40.666;16.602;2022-08-01T14:13:50;28.20;40.20
65231;DHT22;51813;40.666;16.602;2022-08-01T14:16:16;28.20;40.50
65231;DHT22;51813;40.666;16.602;2022-08-01T14:18:42;28.20;40.60
65231;DHT22;51813;40.666;16.602;2022-08-01T14:21:08;28.20;40.70
65231;DHT22;51813;40.666;16.602;2022-08-01T14:23:34;28.20;40.70
65231;DHT22;51813;40.666;16.602;2022-08-01T14:26:00;28.20;40.70
65231;DHT22;51813;40.666;16.602;2022-08-01T14:28:26;28.40;40.70
65231;DHT22;51813;40.666;16.602;2022-08-01T14:30:53;28.40;40.30
65231;DHT22;51813;40.666;16.602;2022-08-01T14:33:21;28.60;41.20
65231;DHT22;51813;40.666;16.602;2022-08-01T14:35:47;28.60;40.40
65231;DHT22;51813;40.666;16.602;2022-08-01T14:38:13;28.50;40.40
65231;DHT22;51813;40.666;16.602;2022-08-01T14:40:38;28.50;40.90
65231;DHT22;51813;40.666;16.602;2022-08-01T14:43:06;28.50;40.80
65231;DHT22;51813;40.666;16.602;2022-08-01T14:45:32;28.60;40.40
65231;DHT22;51813;40.666;16.602;2022-08-01T14:47:58;28.70;39.80
65231;DHT22;51813;40.666;16.602;2022-08-01T14:50:25;28.80;39.80
65231;DHT22;51813;40.666;16.602;2022-08-01T14:52:52;28.70;39.50
65231;DHT22;51813;40.666;16.602;2022-08-01T14:55:18;28.70;39.50
65231;DHT22;51813;40.666;16.602;2022-08-01T14:57:48;28.50;39.70
65231;DHT22;51813;40.666;16.602;2022-08-01T15:00:15;28.60;39.90
65231;DHT22;51813;40.666;16.602;2022-08-01T15:02:41;28.50;40.20
65231;DHT22;51813;40.666;16.602;2022-08-01T15:05:08;28.40;40.10
65231;DHT22;51813;40.666;16.602;2022-08-01T15:07:35;28.40;39.80
65231;DHT22;51813;40.666;16.602;2022-08-01T15:10:01;28.50;39.10
65231;DHT22;51813;40.666;16.602;2022-08-01T15:12:27;28.50;39.00
65231;DHT22;51813;40.666;16.602;2022-08-01T15:14:53;28.60;38.80
65231;DHT22;51813;40.666;16.602;2022-08-01T15:17:21;28.50;38.80
65231;DHT22;51813;40.666;16.602;2022-08-01T15:19:49;28.40;39.00
65231;DHT22;51813;40.666;16.602;2022-08-01T15:22:15;28.40;39.20
65231;DHT22;51813;40.666;16.602;2022-08-01T15:24:41;28.40;39.00
65231;DHT22;51813;40.666;16.602;2022-08-01T15:27:08;28.40;38.40
65231;DHT22;51813;40.666;16.602;2022-08-01T15:29:34;28.40;38.00
65231;DHT22;51813;40.666;16.602;2022-08-01T15:32:03;28.40;37.30
65231;DHT22;51813;40.666;16.602;2022-08-01T15:34:30;28.30;36.80
65231;DHT22;51813;40.666;16.602;2022-08-01T15:36:56;28.20;37.20
65231;DHT22;51813;40.666;16.602;2022-08-01T15:39:22;28.10;37.40
65231;DHT22;51813;40.666;16.602;2022-08-01T15:41:48;28.10;37.00
65231;DHT22;51813;40.666;16.602;2022-08-01T15:44:14;28.00;37.70
65231;DHT22;51813;40.666;16.602;2022-08-01T15:46:40;28.00;37.80
65231;DHT22;51813;40.666;16.602;2022-08-01T15:49:06;28.00;37.30
65231;DHT22;51813;40.666;16.602;2022-08-01T15:51:33;28.00;37.70
65231;DHT22;51813;40.666;16.602;2022-08-01T15:53:59;28.00;37.20
65231;DHT22;51813;40.666;16.602;2022-08-01T15:56:29;28.00;37.70
65231;DHT22;51813;40.666;16.602;2022-08-01T15:58:55;28.10;37.70
65231;DHT22;51813;40.666;16.602;2022-08-01T16:01:21;28.00;36.80
65231;DHT22;51813;40.666;16.602;2022-08-01T16:03:47;28.00;37.40
65231;DHT22;51813;40.666;16.602;2022-08-01T16:06:13;28.00;37.00
65231;DHT22;51813;40.666;16.602;2022-08-01T16:08:38;28.00;37.80
65231;DHT22;51813;40.666;16.602;2022-08-01T16:11:04;27.90;36.50